sensor_id;sensor_type;location;lat;lon;timestamp;P1;durP1;ratioP1;P2;durP2;ratioP2
3589;SDS011;1809;48.470;9.226;2023-06-14T00:02:00;12.97;;;4.57;;
3589;SDS011;1809;48.470;9.226;2023-06-14T00:04:25;6.50;;;4.37;;
3589;SDS011;1809;48.470;9.226;2023-06-14T00:06:51;7.17;;;5.40;;
3589;SDS011;1809;48.470;9.226;2023-06-14T00:09:16;5.53;;;5.03;;
3589;SDS011;1809;48.470;9.226;2023-06-14T00:11:42;6.30;;;5.00;;
3589;SDS011;1809;48.470;9.226;2023-06-14T00:14:08;5.73;;;4.10;;
3589;SDS011;1809;48.470;9.226;2023-06-14T00:16:34;5.33;;;4.83;;
3589;SDS011;1809;48.470;9.226;2023-06-14T00:19:00;5.10;;;4.30;;
3589;SDS011;1809;48.470;9.226;2023-06-14T00:21:28;9.43;;;5.17;;
3589;SDS011;1809;48.470;9.226;2023-06-14T00:23:54;4.87;;;4.50;;
3589;SDS011;1809;48.470;9.226;2023-06-14T00:26:20;5.97;;;5.13;;
3589;SDS011;1809;48.470;9.226;2023-06-14T00:28:46;5.63;;;4.50;;
3589;SDS011;1809;48.470;9.226;2023-06-14T00:31:11;4.40;;;4.00;;
3589;SDS011;1809;48.470;9.226;2023-06-14T00:33:36;5.53;;;5.03;;
3589;SDS011;1809;48.470;9.226;2023-06-14T00:36:02;5.87;;;5.37;;
3589;SDS011;1809;48.470;9.226;2023-06-14T00:38:27;6.77;;;5.13;;
3589;SDS011;1809;48.470;9.226;2023-06-14T00:40:52;4.20;;;3.80;;
3589;SDS011;1809;48.470;9.226;2023-06-14T00:43:18;7.97;;;5.13;;
3589;SDS011;1809;48.470;9.226;2023-06-14T00:45:43;7.30;;;4.57;;
3589;SDS011;1809;48.470;9.226;2023-06-14T00:48:09;5.30;;;4.80;;
3589;SDS011;1809;48.470;9.226;2023-06-14T00:50:36;12.77;;;4.47;;
3589;SDS011;1809;48.470;9.226;2023-06-14T00:53:01;6.77;;;4.57;;
3589;SDS011;1809;48.470;9.226;2023-06-14T00:55:27;6.97;;;4.70;;
3589;SDS011;1809;48.470;9.226;2023-06-14T00:57:54;5.07;;;4.57;;
3589;SDS011;1809;48.470;9.226;2023-06-14T01:00:19;6.40;;;4.80;;
3589;SDS011;1809;48.470;9.226;2023-06-14T01:02:45;7.40;;;5.40;;
3589;SDS011;1809;48.470;9.226;2023-06-14T01:05:10;5.30;;;4.67;;
3589;SDS011;1809;48.470;9.226;2023-06-14T01:15:56;6.97;;;5.17;;
3589;SDS011;1809;48.470;9.226;2023-06-14T01:18:22;7.63;;;5.73;;
3589;SDS011;1809;48.470;9.226;2023-06-14T01:20:49;5.30;;;4.90;;
3589;SDS011;1809;48.470;9.226;2023-06-14T01:23:18;5.50;;;4.90;;
3589;SDS011;1809;48.470;9.226;2023-06-14T01:25:45;6.77;;;5.20;;
3589;SDS011;1809;48.470;9.226;2023-06-14T01:28:12;10.53;;;5.40;;
3589;SDS011;1809;48.470;9.226;2023-06-14T01:30:40;5.13;;;4.73;;
3589;SDS011;1809;48.470;9.226;2023-06-14T01:33:09;6.60;;;5.00;;
3589;SDS011;1809;48.470;9.226;2023-06-14T01:35:37;5.70;;;5.20;;
3589;SDS011;1809;48.470;9.226;2023-06-14T01:38:02;6.17;;;4.50;;
3589;SDS011;1809;48.470;9.226;2023-06-14T01:40:30;4.80;;;4.40;;
3589;SDS011;1809;48.470;9.226;2023-06-14T01:42:57;5.17;;;4.67;;
3589;SDS011;1809;48.470;9.226;2023-06-14T01:45:23;4.80;;;4.40;;
3589;SDS011;1809;48.470;9.226;2023-06-14T01:47:49;4.80;;;4.37;;
3589;SDS011;1809;48.470;9.226;2023-06-14T01:50:15;5.17;;;4.70;;
3589;SDS011;1809;48.470;9.226;2023-06-14T01:52:40;7.70;;;5.20;;
3589;SDS011;1809;48.470;9.226;2023-06-14T01:55:06;6.57;;;4.90;;
3589;SDS011;1809;48.470;9.226;2023-06-14T01:57:33;6.33;;;5.70;;
3589;SDS011;1809;48.470;9.226;2023-06-14T01:59:58;5.83;;;5.00;;
3589;SDS011;1809;48.470;9.226;2023-06-14T02:02:23;6.73;;;4.67;;
3589;SDS011;1809;48.470;9.226;2023-06-14T02:04:49;4.83;;;4.53;;
3589;SDS011;1809;48.470;9.226;2023-06-14T02:07:14;5.87;;;4.67;;
3589;SDS011;1809;48.470;9.226;2023-06-14T02:09:40;10.90;;;5.50;;
3589;SDS011;1809;48.470;9.226;2023-06-14T02:12:06;5.43;;;4.87;;
3589;SDS011;1809;48.470;9.226;2023-06-14T02:14:32;6.50;;;5.10;;
3589;SDS011;1809;48.470;9.226;2023-06-14T02:16:58;6.13;;;4.70;;
3589;SDS011;1809;48.470;9.226;2023-06-14T02:19:25;5.97;;;4.80;;
3589;SDS011;1809;48.470;9.226;2023-06-14T02:21:51;4.90;;;4.60;;
3589;SDS011;1809;48.470;9.226;2023-06-14T02:24:16;8.43;;;5.00;;
3589;SDS011;1809;48.470;9.226;2023-06-14T02:26:42;8.07;;;5.27;;
3589;SDS011;1809;48.470;9.226;2023-06-14T02:29:07;5.33;;;4.83;;
3589;SDS011;1809;48.470;9.226;2023-06-14T02:31:35;5.63;;;5.13;;
3589;SDS011;1809;48.470;9.226;2023-06-14T02:34:01;6.70;;;5.00;;
3589;SDS011;1809;48.470;9.226;2023-06-14T02:36:26;5.37;;;4.87;;
3589;SDS011;1809;48.470;9.226;2023-06-14T02:38:54;6.07;;;4.90;;
3589;SDS011;1809;48.470;9.226;2023-06-14T02:41:19;10.20;;;4.10;;
3589;SDS011;1809;48.470;9.226;2023-06-14T02:43:45;5.43;;;4.53;;
3589;SDS011;1809;48.470;9.226;2023-06-14T02:46:10;7.07;;;4.97;;
3589;SDS011;1809;48.470;9.226;2023-06-14T02:48:36;5.30;;;4.80;;
3589;SDS011;1809;48.470;9.226;2023-06-14T02:51:01;4.60;;;4.20;;
3589;SDS011;1809;48.470;9.226;2023-06-14T02:53:27;4.90;;;4.50;;
3589;SDS011;1809;48.470;9.226;2023-06-14T02:55:52;5.50;;;4.70;;
3589;SDS011;1809;48.470;9.226;2023-06-14T02:58:20;12.83;;;4.90;;
3589;SDS011;1809;48.470;9.226;2023-06-14T03:00:46;7.97;;;5.40;;
3589;SDS011;1809;48.470;9.226;2023-06-14T03:03:11;5.43;;;4.80;;
3589;SDS011;1809;48.470;9.226;2023-06-14T03:05:41;6.07;;;5.43;;
3589;SDS011;1809;48.470;9.226;2023-06-14T03:08:11;5.57;;;4.47;;
3589;SDS011;1809;48.470;9.226;2023-06-14T03:10:41;6.63;;;5.50;;
3589;SDS011;1809;48.470;9.226;2023-06-14T03:13:13;4.93;;;4.53;;
3589;SDS011;1809;48.470;9.226;2023-06-14T03:15:39;6.63;;;4.83;;
3589;SDS011;1809;48.470;9.226;2023-06-14T03:18:07;7.10;;;5.17;;
3589;SDS011;1809;48.470;9.226;2023-06-14T03:20:34;7.97;;;5.03;;
3589;SDS011;1809;48.470;9.226;2023-06-14T03:23:00;5.33;;;4.40;;
3589;SDS011;1809;48.470;9.226;2023-06-14T03:25:27;5.17;;;4.67;;
3589;SDS011;1809;48.470;9.226;2023-06-14T03:27:54;5.63;;;5.13;;
3589;SDS011;1809;48.470;9.226;2023-06-14T03:30:20;8.77;;;5.30;;
3589;SDS011;1809;48.470;9.226;2023-06-14T03:32:45;6.87;;;4.90;;
3589;SDS011;1809;48.470;9.226;2023-06-14T03:35:11;5.63;;;5.13;;
3589;SDS011;1809;48.470;9.226;2023-06-14T03:37:42;10.50;;;5.20;;
3589;SDS011;1809;48.470;9.226;2023-06-14T03:40:10;5.57;;;4.80;;
3589;SDS011;1809;48.470;9.226;2023-06-14T03:42:38;6.87;;;5.20;;
3589;SDS011;1809;48.470;9.226;2023-06-14T03:45:03;5.27;;;4.77;;
3589;SDS011;1809;48.470;9.226;2023-06-14T03:47:29;6.00;;;5.47;;
3589;SDS011;1809;48.470;9.226;2023-06-14T03:49:55;5.03;;;4.53;;
3589;SDS011;1809;48.470;9.226;2023-06-14T03:52:20;4.87;;;4.47;;
3589;SDS011;1809;48.470;9.226;2023-06-14T03:54:47;9.03;;;6.53;;
3589;SDS011;1809;48.470;9.226;2023-06-14T03:57:12;6.17;;;4.33;;
3589;SDS011;1809;48.470;9.226;2023-06-14T03:59:38;4.80;;;4.40;;
3589;SDS011;1809;48.470;9.226;2023-06-14T04:02:03;6.77;;;5.37;;
3589;SDS011;1809;48.470;9.226;2023-06-14T04:04:29;5.70;;;5.20;;
3589;SDS011;1809;48.470;9.226;2023-06-14T04:06:55;5.97;;;5.03;;
3589;SDS011;1809;48.470;9.226;2023-06-14T04:09:21;5.50;;;5.00;;
3589;SDS011;1809;48.470;9.226;2023-06-14T04:11:49;5.57;;;5.10;;
3589;SDS011;1809;48.470;9.226;2023-06-14T04:14:15;8.50;;;4.80;;
3589;SDS011;1809;48.470;9.226;2023-06-14T04:16:40;10.80;;;4.97;;
3589;SDS011;1809;48.470;9.226;2023-06-14T04:19:06;5.90;;;5.40;;
3589;SDS011;1809;48.470;9.226;2023-06-14T04:21:31;8.67;;;5.70;;
3589;SDS011;1809;48.470;9.226;2023-06-14T04:23:59;5.20;;;4.70;;
3589;SDS011;1809;48.470;9.226;2023-06-14T04:26:27;6.00;;;4.97;;
3589;SDS011;1809;48.470;9.226;2023-06-14T04:28:55;5.40;;;5.00;;
3589;SDS011;1809;48.470;9.226;2023-06-14T04:31:22;5.10;;;4.70;;
3589;SDS011;1809;48.470;9.226;2023-06-14T04:33:50;5.77;;;4.73;;
3589;SDS011;1809;48.470;9.226;2023-06-14T04:36:15;4.80;;;4.50;;
3589;SDS011;1809;48.470;9.226;2023-06-14T04:38:42;5.77;;;5.30;;
3589;SDS011;1809;48.470;9.226;2023-06-14T04:41:10;8.30;;;5.97;;
3589;SDS011;1809;48.470;9.226;2023-06-14T04:43:36;5.23;;;4.73;;
3589;SDS011;1809;48.470;9.226;2023-06-14T04:46:03;4.93;;;4.53;;
3589;SDS011;1809;48.470;9.226;2023-06-14T04:48:35;5.17;;;4.77;;
3589;SDS011;1809;48.470;9.226;2023-06-14T04:51:00;4.83;;;4.40;;
3589;SDS011;1809;48.470;9.226;2023-06-14T04:53:28;5.03;;;4.63;;
3589;SDS011;1809;48.470;9.226;2023-06-14T04:55:54;17.53;;;6.13;;
3589;SDS011;1809;48.470;9.226;2023-06-14T04:58:19;6.37;;;4.80;;
3589;SDS011;1809;48.470;9.226;2023-06-14T05:00:45;6.07;;;5.50;;
3589;SDS011;1809;48.470;9.226;2023-06-14T05:03:10;5.53;;;5.13;;
3589;SDS011;1809;48.470;9.226;2023-06-14T05:05:38;5.37;;;4.83;;
3589;SDS011;1809;48.470;9.226;2023-06-14T05:08:05;6.07;;;5.50;;
3589;SDS011;1809;48.470;9.226;2023-06-14T05:10:30;6.70;;;5.73;;
3589;SDS011;1809;48.470;9.226;2023-06-14T05:12:56;7.43;;;5.80;;
3589;SDS011;1809;48.470;9.226;2023-06-14T05:15:21;6.40;;;4.93;;
3589;SDS011;1809;48.470;9.226;2023-06-14T05:17:50;9.10;;;5.90;;
3589;SDS011;1809;48.470;9.226;2023-06-14T05:20:20;10.63;;;6.07;;
3589;SDS011;1809;48.470;9.226;2023-06-14T05:22:45;4.63;;;4.20;;
3589;SDS011;1809;48.470;9.226;2023-06-14T05:25:11;5.10;;;4.73;;
3589;SDS011;1809;48.470;9.226;2023-06-14T05:27:36;5.93;;;5.33;;
3589;SDS011;1809;48.470;9.226;2023-06-14T05:30:02;5.80;;;5.40;;
3589;SDS011;1809;48.470;9.226;2023-06-14T05:32:29;4.87;;;4.47;;
3589;SDS011;1809;48.470;9.226;2023-06-14T05:34:54;4.73;;;4.43;;
3589;SDS011;1809;48.470;9.226;2023-06-14T05:37:20;6.20;;;5.40;;
3589;SDS011;1809;48.470;9.226;2023-06-14T05:39:45;5.47;;;4.90;;
3589;SDS011;1809;48.470;9.226;2023-06-14T05:42:10;4.87;;;4.37;;
3589;SDS011;1809;48.470;9.226;2023-06-14T05:44:36;5.07;;;4.60;;
3589;SDS011;1809;48.470;9.226;2023-06-14T05:47:01;5.13;;;4.63;;
3589;SDS011;1809;48.470;9.226;2023-06-14T05:49:27;5.80;;;5.40;;
3589;SDS011;1809;48.470;9.226;2023-06-14T05:51:52;7.10;;;5.33;;
3589;SDS011;1809;48.470;9.226;2023-06-14T05:54:17;5.63;;;5.23;;
3589;SDS011;1809;48.470;9.226;2023-06-14T05:56:42;6.13;;;5.73;;
3589;SDS011;1809;48.470;9.226;2023-06-14T05:59:08;7.67;;;5.77;;
3589;SDS011;1809;48.470;9.226;2023-06-14T06:01:33;9.60;;;5.57;;
3589;SDS011;1809;48.470;9.226;2023-06-14T06:04:01;6.13;;;5.57;;
3589;SDS011;1809;48.470;9.226;2023-06-14T06:06:27;12.10;;;6.03;;
3589;SDS011;1809;48.470;9.226;2023-06-14T06:08:52;6.73;;;5.23;;
3589;SDS011;1809;48.470;9.226;2023-06-14T06:11:17;6.33;;;5.77;;
3589;SDS011;1809;48.470;9.226;2023-06-14T06:13:43;8.53;;;6.77;;
3589;SDS011;1809;48.470;9.226;2023-06-14T06:16:08;6.83;;;6.20;;
3589;SDS011;1809;48.470;9.226;2023-06-14T06:18:33;10.33;;;6.93;;
3589;SDS011;1809;48.470;9.226;2023-06-14T06:20:59;7.60;;;6.90;;
3589;SDS011;1809;48.470;9.226;2023-06-14T06:23:25;9.70;;;7.77;;
3589;SDS011;1809;48.470;9.226;2023-06-14T06:25:50;8.57;;;7.70;;
3589;SDS011;1809;48.470;9.226;2023-06-14T06:28:16;13.63;;;6.60;;
3589;SDS011;1809;48.470;9.226;2023-06-14T06:30:42;7.73;;;6.70;;
3589;SDS011;1809;48.470;9.226;2023-06-14T06:33:07;7.57;;;6.87;;
3589;SDS011;1809;48.470;9.226;2023-06-14T06:35:33;6.90;;;6.50;;
3589;SDS011;1809;48.470;9.226;2023-06-14T06:37:58;9.47;;;7.30;;
3589;SDS011;1809;48.470;9.226;2023-06-14T06:40:27;9.97;;;7.30;;
3589;SDS011;1809;48.470;9.226;2023-06-14T06:42:52;18.03;;;7.03;;
3589;SDS011;1809;48.470;9.226;2023-06-14T06:45:18;7.83;;;7.03;;
3589;SDS011;1809;48.470;9.226;2023-06-14T06:47:43;8.90;;;7.60;;
3589;SDS011;1809;48.470;9.226;2023-06-14T06:50:09;11.47;;;7.70;;
3589;SDS011;1809;48.470;9.226;2023-06-14T06:52:34;13.33;;;6.53;;
3589;SDS011;1809;48.470;9.226;2023-06-14T06:55:00;7.80;;;7.00;;
3589;SDS011;1809;48.470;9.226;2023-06-14T06:57:25;9.40;;;6.50;;
3589;SDS011;1809;48.470;9.226;2023-06-14T06:59:50;12.93;;;7.10;;
3589;SDS011;1809;48.470;9.226;2023-06-14T07:02:16;7.20;;;6.57;;
3589;SDS011;1809;48.470;9.226;2023-06-14T07:04:42;7.90;;;6.80;;
3589;SDS011;1809;48.470;9.226;2023-06-14T07:07:07;7.40;;;6.60;;
3589;SDS011;1809;48.470;9.226;2023-06-14T07:09:34;6.13;;;5.60;;
3589;SDS011;1809;48.470;9.226;2023-06-14T07:12:00;9.10;;;6.40;;
3589;SDS011;1809;48.470;9.226;2023-06-14T07:14:27;8.43;;;6.23;;
3589;SDS011;1809;48.470;9.226;2023-06-14T07:16:55;15.00;;;6.70;;
3589;SDS011;1809;48.470;9.226;2023-06-14T07:19:20;13.97;;;7.13;;
3589;SDS011;1809;48.470;9.226;2023-06-14T07:21:45;8.93;;;5.47;;
3589;SDS011;1809;48.470;9.226;2023-06-14T07:24:11;12.63;;;5.97;;
3589;SDS011;1809;48.470;9.226;2023-06-14T07:26:36;7.23;;;5.90;;
3589;SDS011;1809;48.470;9.226;2023-06-14T07:29:02;8.27;;;6.30;;
3589;SDS011;1809;48.470;9.226;2023-06-14T07:31:27;7.07;;;6.47;;
3589;SDS011;1809;48.470;9.226;2023-06-14T07:33:53;9.97;;;6.97;;
3589;SDS011;1809;48.470;9.226;2023-06-14T07:36:18;12.80;;;7.13;;
3589;SDS011;1809;48.470;9.226;2023-06-14T07:38:43;8.77;;;6.13;;
3589;SDS011;1809;48.470;9.226;2023-06-14T07:41:09;13.50;;;7.70;;
3589;SDS011;1809;48.470;9.226;2023-06-14T07:43:34;8.53;;;6.63;;
3589;SDS011;1809;48.470;9.226;2023-06-14T07:46:00;7.70;;;6.57;;
3589;SDS011;1809;48.470;9.226;2023-06-14T07:48:26;9.60;;;6.97;;
3589;SDS011;1809;48.470;9.226;2023-06-14T07:50:51;10.37;;;7.63;;
3589;SDS011;1809;48.470;9.226;2023-06-14T07:53:16;9.63;;;7.83;;
3589;SDS011;1809;48.470;9.226;2023-06-14T07:55:42;15.03;;;7.97;;
3589;SDS011;1809;48.470;9.226;2023-06-14T07:58:08;7.47;;;6.60;;
3589;SDS011;1809;48.470;9.226;2023-06-14T08:00:34;8.67;;;7.20;;
3589;SDS011;1809;48.470;9.226;2023-06-14T08:03:00;6.00;;;5.40;;
3589;SDS011;1809;48.470;9.226;2023-06-14T08:05:25;6.47;;;5.87;;
3589;SDS011;1809;48.470;9.226;2023-06-14T08:07:52;8.93;;;6.30;;
3589;SDS011;1809;48.470;9.226;2023-06-14T08:10:17;6.70;;;6.10;;
3589;SDS011;1809;48.470;9.226;2023-06-14T08:12:42;6.50;;;5.93;;
3589;SDS011;1809;48.470;9.226;2023-06-14T08:15:08;10.10;;;6.47;;
3589;SDS011;1809;48.470;9.226;2023-06-14T08:17:34;7.20;;;6.50;;
3589;SDS011;1809;48.470;9.226;2023-06-14T08:19:59;15.33;;;7.60;;
3589;SDS011;1809;48.470;9.226;2023-06-14T08:22:25;13.67;;;7.90;;
3589;SDS011;1809;48.470;9.226;2023-06-14T08:24:50;10.43;;;7.27;;
3589;SDS011;1809;48.470;9.226;2023-06-14T08:27:18;9.83;;;7.00;;
3589;SDS011;1809;48.470;9.226;2023-06-14T08:29:43;9.03;;;5.90;;
3589;SDS011;1809;48.470;9.226;2023-06-14T08:32:09;12.00;;;7.43;;
3589;SDS011;1809;48.470;9.226;2023-06-14T08:34:35;8.93;;;7.03;;
3589;SDS011;1809;48.470;9.226;2023-06-14T08:37:00;11.33;;;6.90;;
3589;SDS011;1809;48.470;9.226;2023-06-14T08:39:26;10.50;;;6.40;;
3589;SDS011;1809;48.470;9.226;2023-06-14T08:41:51;10.20;;;6.10;;
3589;SDS011;1809;48.470;9.226;2023-06-14T08:44:17;7.10;;;6.40;;
3589;SDS011;1809;48.470;9.226;2023-06-14T08:46:43;7.77;;;7.10;;
3589;SDS011;1809;48.470;9.226;2023-06-14T08:49:09;10.83;;;6.27;;
3589;SDS011;1809;48.470;9.226;2023-06-14T08:51:36;7.50;;;6.50;;
3589;SDS011;1809;48.470;9.226;2023-06-14T08:54:02;7.17;;;5.93;;
3589;SDS011;1809;48.470;9.226;2023-06-14T08:56:29;10.10;;;6.73;;
3589;SDS011;1809;48.470;9.226;2023-06-14T08:58:56;6.37;;;5.80;;
3589;SDS011;1809;48.470;9.226;2023-06-14T09:01:25;8.00;;;5.77;;
3589;SDS011;1809;48.470;9.226;2023-06-14T09:03:51;12.30;;;6.60;;
3589;SDS011;1809;48.470;9.226;2023-06-14T09:06:20;14.20;;;6.00;;
3589;SDS011;1809;48.470;9.226;2023-06-14T09:08:48;8.10;;;6.70;;
3589;SDS011;1809;48.470;9.226;2023-06-14T09:11:14;6.73;;;6.13;;
3589;SDS011;1809;48.470;9.226;2023-06-14T09:13:41;9.73;;;6.80;;
3589;SDS011;1809;48.470;9.226;2023-06-14T09:16:07;8.80;;;6.07;;
3589;SDS011;1809;48.470;9.226;2023-06-14T09:18:37;6.53;;;5.80;;
3589;SDS011;1809;48.470;9.226;2023-06-14T09:21:07;10.60;;;5.90;;
3589;SDS011;1809;48.470;9.226;2023-06-14T09:23:36;7.27;;;5.93;;
3589;SDS011;1809;48.470;9.226;2023-06-14T09:26:10;6.20;;;5.60;;
3589;SDS011;1809;48.470;9.226;2023-06-14T09:28:37;12.90;;;7.03;;
3589;SDS011;1809;48.470;9.226;2023-06-14T09:31:14;18.03;;;6.03;;
3589;SDS011;1809;48.470;9.226;2023-06-14T09:33:50;6.80;;;6.20;;
3589;SDS011;1809;48.470;9.226;2023-06-14T09:36:16;10.30;;;6.30;;
3589;SDS011;1809;48.470;9.226;2023-06-14T09:38:56;8.80;;;6.00;;
3589;SDS011;1809;48.470;9.226;2023-06-14T09:41:39;9.47;;;6.00;;
3589;SDS011;1809;48.470;9.226;2023-06-14T09:44:06;14.43;;;6.43;;
3589;SDS011;1809;48.470;9.226;2023-06-14T09:46:33;9.80;;;5.77;;
3589;SDS011;1809;48.470;9.226;2023-06-14T09:49:00;6.60;;;6.10;;
3589;SDS011;1809;48.470;9.226;2023-06-14T09:51:26;6.40;;;5.63;;
3589;SDS011;1809;48.470;9.226;2023-06-14T09:53:53;6.67;;;5.00;;
3589;SDS011;1809;48.470;9.226;2023-06-14T09:56:29;6.50;;;5.23;;
3589;SDS011;1809;48.470;9.226;2023-06-14T09:59:06;6.20;;;5.60;;
3589;SDS011;1809;48.470;9.226;2023-06-14T10:01:35;13.03;;;5.80;;
3589;SDS011;1809;48.470;9.226;2023-06-14T10:04:06;6.00;;;5.50;;
3589;SDS011;1809;48.470;9.226;2023-06-14T10:06:34;7.20;;;6.47;;
3589;SDS011;1809;48.470;9.226;2023-06-14T10:09:02;6.37;;;5.53;;
3589;SDS011;1809;48.470;9.226;2023-06-14T10:11:30;5.53;;;5.13;;
3589;SDS011;1809;48.470;9.226;2023-06-14T10:13:56;8.27;;;6.40;;
3589;SDS011;1809;48.470;9.226;2023-06-14T10:16:24;17.33;;;7.47;;
3589;SDS011;1809;48.470;9.226;2023-06-14T10:19:00;7.30;;;6.60;;
3589;SDS011;1809;48.470;9.226;2023-06-14T10:21:59;8.00;;;5.70;;
3589;SDS011;1809;48.470;9.226;2023-06-14T10:24:32;5.70;;;5.30;;
3589;SDS011;1809;48.470;9.226;2023-06-14T10:26:59;5.90;;;5.40;;
3589;SDS011;1809;48.470;9.226;2023-06-14T10:29:26;8.37;;;6.47;;
3589;SDS011;1809;48.470;9.226;2023-06-14T10:31:55;6.20;;;5.70;;
3589;SDS011;1809;48.470;9.226;2023-06-14T10:34:23;7.33;;;5.40;;
3589;SDS011;1809;48.470;9.226;2023-06-14T10:37:01;6.17;;;5.57;;
3589;SDS011;1809;48.470;9.226;2023-06-14T10:39:28;6.33;;;5.73;;
3589;SDS011;1809;48.470;9.226;2023-06-14T10:41:54;6.50;;;5.43;;
3589;SDS011;1809;48.470;9.226;2023-06-14T10:46:46;9.70;;;6.03;;
3589;SDS011;1809;48.470;9.226;2023-06-14T10:49:15;7.20;;;5.40;;
3589;SDS011;1809;48.470;9.226;2023-06-14T10:51:44;6.10;;;5.70;;
3589;SDS011;1809;48.470;9.226;2023-06-14T10:54:14;10.73;;;5.50;;
3589;SDS011;1809;48.470;9.226;2023-06-14T10:56:47;10.87;;;5.60;;
3589;SDS011;1809;48.470;9.226;2023-06-14T10:59:13;7.20;;;6.13;;
3589;SDS011;1809;48.470;9.226;2023-06-14T11:04:52;7.50;;;5.40;;
3589;SDS011;1809;48.470;9.226;2023-06-14T11:10:02;9.27;;;6.27;;
3589;SDS011;1809;48.470;9.226;2023-06-14T11:12:48;8.93;;;6.40;;
3589;SDS011;1809;48.470;9.226;2023-06-14T11:15:16;6.13;;;5.10;;
3589;SDS011;1809;48.470;9.226;2023-06-14T11:17:51;7.27;;;6.43;;
3589;SDS011;1809;48.470;9.226;2023-06-14T11:20:18;7.40;;;6.00;;
3589;SDS011;1809;48.470;9.226;2023-06-14T11:22:44;7.07;;;6.07;;
3589;SDS011;1809;48.470;9.226;2023-06-14T11:25:13;9.53;;;6.23;;
3589;SDS011;1809;48.470;9.226;2023-06-14T11:27:41;8.43;;;6.17;;
3589;SDS011;1809;48.470;9.226;2023-06-14T11:30:08;5.83;;;5.13;;
3589;SDS011;1809;48.470;9.226;2023-06-14T11:32:35;6.50;;;5.90;;
3589;SDS011;1809;48.470;9.226;2023-06-14T11:35:01;6.70;;;6.10;;
3589;SDS011;1809;48.470;9.226;2023-06-14T11:37:27;10.30;;;6.23;;
3589;SDS011;1809;48.470;9.226;2023-06-14T11:39:59;19.13;;;7.10;;
3589;SDS011;1809;48.470;9.226;2023-06-14T11:42:28;5.70;;;5.10;;
3589;SDS011;1809;48.470;9.226;2023-06-14T11:44:54;6.57;;;5.83;;
3589;SDS011;1809;48.470;9.226;2023-06-14T11:47:20;10.40;;;7.30;;
3589;SDS011;1809;48.470;9.226;2023-06-14T11:49:46;7.30;;;6.60;;
3589;SDS011;1809;48.470;9.226;2023-06-14T11:52:11;7.07;;;6.30;;
3589;SDS011;1809;48.470;9.226;2023-06-14T11:54:37;6.60;;;5.73;;
3589;SDS011;1809;48.470;9.226;2023-06-14T11:57:05;6.83;;;4.90;;
3589;SDS011;1809;48.470;9.226;2023-06-14T11:59:32;6.40;;;5.80;;
3589;SDS011;1809;48.470;9.226;2023-06-14T12:01:57;6.20;;;5.70;;
3589;SDS011;1809;48.470;9.226;2023-06-14T12:04:23;9.33;;;6.27;;
3589;SDS011;1809;48.470;9.226;2023-06-14T12:06:50;7.93;;;6.43;;
3589;SDS011;1809;48.470;9.226;2023-06-14T12:09:18;6.63;;;6.03;;
3589;SDS011;1809;48.470;9.226;2023-06-14T12:11:44;6.87;;;6.27;;
3589;SDS011;1809;48.470;9.226;2023-06-14T12:14:10;5.70;;;5.07;;
3589;SDS011;1809;48.470;9.226;2023-06-14T12:16:39;8.10;;;6.60;;
3589;SDS011;1809;48.470;9.226;2023-06-14T12:19:13;6.30;;;5.80;;
3589;SDS011;1809;48.470;9.226;2023-06-14T12:21:40;10.70;;;6.40;;
3589;SDS011;1809;48.470;9.226;2023-06-14T12:24:06;9.70;;;6.53;;
3589;SDS011;1809;48.470;9.226;2023-06-14T12:26:32;9.70;;;6.10;;
3589;SDS011;1809;48.470;9.226;2023-06-14T12:28:58;7.00;;;5.60;;
3589;SDS011;1809;48.470;9.226;2023-06-14T12:31:23;6.03;;;5.43;;
3589;SDS011;1809;48.470;9.226;2023-06-14T12:33:49;8.60;;;5.30;;
3589;SDS011;1809;48.470;9.226;2023-06-14T12:36:15;6.10;;;5.57;;
3589;SDS011;1809;48.470;9.226;2023-06-14T12:38:41;6.67;;;5.80;;
3589;SDS011;1809;48.470;9.226;2023-06-14T12:41:07;6.23;;;5.80;;
3589;SDS011;1809;48.470;9.226;2023-06-14T12:43:32;8.07;;;6.73;;
3589;SDS011;1809;48.470;9.226;2023-06-14T12:45:58;15.53;;;5.80;;
3589;SDS011;1809;48.470;9.226;2023-06-14T12:48:24;6.27;;;5.80;;
3589;SDS011;1809;48.470;9.226;2023-06-14T12:50:52;8.50;;;6.37;;
3589;SDS011;1809;48.470;9.226;2023-06-14T12:53:17;6.60;;;5.97;;
3589;SDS011;1809;48.470;9.226;2023-06-14T12:55:43;14.23;;;6.00;;
3589;SDS011;1809;48.470;9.226;2023-06-14T12:58:08;6.97;;;6.27;;
3589;SDS011;1809;48.470;9.226;2023-06-14T13:00:35;8.43;;;6.60;;
3589;SDS011;1809;48.470;9.226;2023-06-14T13:03:00;7.00;;;6.07;;
3589;SDS011;1809;48.470;9.226;2023-06-14T13:05:26;8.47;;;6.67;;
3589;SDS011;1809;48.470;9.226;2023-06-14T13:07:51;7.80;;;6.27;;
3589;SDS011;1809;48.470;9.226;2023-06-14T13:10:17;7.20;;;6.53;;
3589;SDS011;1809;48.470;9.226;2023-06-14T13:12:43;6.67;;;6.07;;
3589;SDS011;1809;48.470;9.226;2023-06-14T13:15:08;6.00;;;5.60;;
3589;SDS011;1809;48.470;9.226;2023-06-14T13:17:37;6.50;;;5.90;;
3589;SDS011;1809;48.470;9.226;2023-06-14T13:20:07;6.50;;;5.90;;
3589;SDS011;1809;48.470;9.226;2023-06-14T13:22:33;6.90;;;6.30;;
3589;SDS011;1809;48.470;9.226;2023-06-14T13:25:00;6.97;;;6.40;;
3589;SDS011;1809;48.470;9.226;2023-06-14T13:27:26;8.43;;;5.97;;
3589;SDS011;1809;48.470;9.226;2023-06-14T13:29:52;7.80;;;6.20;;
3589;SDS011;1809;48.470;9.226;2023-06-14T13:32:17;7.90;;;7.10;;
3589;SDS011;1809;48.470;9.226;2023-06-14T13:34:42;8.20;;;6.20;;
3589;SDS011;1809;48.470;9.226;2023-06-14T13:37:08;21.50;;;6.73;;
3589;SDS011;1809;48.470;9.226;2023-06-14T13:39:33;8.47;;;5.07;;
3589;SDS011;1809;48.470;9.226;2023-06-14T13:41:58;6.10;;;5.63;;
3589;SDS011;1809;48.470;9.226;2023-06-14T13:44:24;9.40;;;7.07;;
3589;SDS011;1809;48.470;9.226;2023-06-14T13:46:50;7.50;;;6.90;;
3589;SDS011;1809;48.470;9.226;2023-06-14T13:49:15;7.10;;;6.60;;
3589;SDS011;1809;48.470;9.226;2023-06-14T13:51:41;6.60;;;5.90;;
3589;SDS011;1809;48.470;9.226;2023-06-14T13:54:06;9.60;;;6.63;;
3589;SDS011;1809;48.470;9.226;2023-06-14T13:56:31;6.77;;;6.03;;
3589;SDS011;1809;48.470;9.226;2023-06-14T13:58:57;8.70;;;6.33;;
3589;SDS011;1809;48.470;9.226;2023-06-14T14:01:22;6.50;;;5.90;;
3589;SDS011;1809;48.470;9.226;2023-06-14T14:03:48;7.10;;;6.50;;
3589;SDS011;1809;48.470;9.226;2023-06-14T14:06:14;8.63;;;5.90;;
3589;SDS011;1809;48.470;9.226;2023-06-14T14:08:40;6.00;;;5.60;;
3589;SDS011;1809;48.470;9.226;2023-06-14T14:11:06;8.30;;;6.63;;
3589;SDS011;1809;48.470;9.226;2023-06-14T14:13:32;9.17;;;5.90;;
3589;SDS011;1809;48.470;9.226;2023-06-14T14:15:58;8.40;;;6.00;;
3589;SDS011;1809;48.470;9.226;2023-06-14T14:18:24;6.87;;;6.27;;
3589;SDS011;1809;48.470;9.226;2023-06-14T14:20:49;6.80;;;5.87;;
3589;SDS011;1809;48.470;9.226;2023-06-14T14:23:15;6.80;;;6.20;;
3589;SDS011;1809;48.470;9.226;2023-06-14T14:25:40;17.93;;;6.30;;
3589;SDS011;1809;48.470;9.226;2023-06-14T14:28:05;9.90;;;6.37;;
3589;SDS011;1809;48.470;9.226;2023-06-14T14:30:31;6.23;;;5.70;;
3589;SDS011;1809;48.470;9.226;2023-06-14T14:32:56;6.97;;;5.77;;
3589;SDS011;1809;48.470;9.226;2023-06-14T14:35:21;8.43;;;6.43;;
3589;SDS011;1809;48.470;9.226;2023-06-14T14:37:49;8.70;;;5.03;;
3589;SDS011;1809;48.470;9.226;2023-06-14T14:40:14;6.70;;;6.10;;
3589;SDS011;1809;48.470;9.226;2023-06-14T14:42:40;6.70;;;5.93;;
3589;SDS011;1809;48.470;9.226;2023-06-14T14:45:05;9.70;;;5.73;;
3589;SDS011;1809;48.470;9.226;2023-06-14T14:47:31;7.80;;;5.93;;
3589;SDS011;1809;48.470;9.226;2023-06-14T14:49:56;6.10;;;5.50;;
3589;SDS011;1809;48.470;9.226;2023-06-14T14:52:22;6.73;;;5.70;;
3589;SDS011;1809;48.470;9.226;2023-06-14T14:54:47;6.27;;;5.30;;
3589;SDS011;1809;48.470;9.226;2023-06-14T14:57:12;9.67;;;6.07;;
3589;SDS011;1809;48.470;9.226;2023-06-14T14:59:38;14.60;;;6.60;;
3589;SDS011;1809;48.470;9.226;2023-06-14T15:02:03;11.53;;;7.00;;
3589;SDS011;1809;48.470;9.226;2023-06-14T15:04:29;7.20;;;6.50;;
3589;SDS011;1809;48.470;9.226;2023-06-14T15:06:54;6.00;;;5.50;;
3589;SDS011;1809;48.470;9.226;2023-06-14T15:09:19;6.30;;;5.90;;
3589;SDS011;1809;48.470;9.226;2023-06-14T15:11:45;6.60;;;6.00;;
3589;SDS011;1809;48.470;9.226;2023-06-14T15:14:10;6.90;;;6.40;;
3589;SDS011;1809;48.470;9.226;2023-06-14T15:16:36;7.20;;;6.50;;
3589;SDS011;1809;48.470;9.226;2023-06-14T15:19:01;6.53;;;6.03;;
3589;SDS011;1809;48.470;9.226;2023-06-14T15:21:26;7.03;;;6.10;;
3589;SDS011;1809;48.470;9.226;2023-06-14T15:23:52;7.57;;;6.00;;
3589;SDS011;1809;48.470;9.226;2023-06-14T15:26:18;6.37;;;5.90;;